Aviation Digital Data Service (ADDS)

Output produced by TAFs form (0843 UTC 10 February 2016)
found at http://www.aviationweather.gov/adds/tafs/
 
TAF KDOV 100800Z 1008/1114 28012KT 9999 BKN040 OVC100 620406 QNH2963INS 
     BECMG 1011/1012 28012G18KT 9000 -SN OVC015 620209 QNH2967INS 
     BECMG 1014/1015 27015G25KT 9999 NSW BKN020 620203 QNH2970INS 
     BECMG 1022/1023 29009KT 9999 FEW020 BKN050 620503 QNH2978INS 
     BECMG 1101/1102 28015G25KT 9999 SCT020 BKN040 OVC060 620406 QNH2980INS TX03/1022Z TNM04/1108Z